CGVAR CYTZ-CYTZ
Flight info
| Callsign | CGVAR |
|---|---|
| Flight time | 0h 10m |
| Altitude | 2500 |
| Route | |
| Aircraft | C172 |
Departure
| Time | 2026-04-28 19:46 |
|---|---|
| Airport | Billy Bishop Toronto City Airport (CYTZ) |
Arrival
| Time | 2026-04-28 19:57 |
|---|---|
| Airport | Billy Bishop Toronto City Airport (CYTZ) |
| Time | Latitude | Longitude | Altitude | Speed | Heading |
|---|---|---|---|---|---|
| 2026-04-28 19:34 | 43.63135 | -79.39296 | 255 ft | 0 kts | 157° |
| 2026-04-28 19:40 | 43.63105 | -79.39305 | 255 ft | 13 kts | 231° |
| 2026-04-28 19:41 | 43.63056 | -79.39473 | 255 ft | 25 kts | 239° |
| 2026-04-28 19:41 | 43.62992 | -79.39728 | 255 ft | 26 kts | 254° |
| 2026-04-28 19:41 | 43.62969 | -79.39836 | 255 ft | 5 kts | 270° |
| 2026-04-28 19:41 | 43.62971 | -79.39849 | 255 ft | 5 kts | 289° |
| 2026-04-28 19:42 | 43.63000 | -79.39942 | 254 ft | 17 kts | 294° |
| 2026-04-28 19:42 | 43.62979 | -79.40135 | 251 ft | 28 kts | 232° |
| 2026-04-28 19:42 | 43.62838 | -79.40313 | 250 ft | 13 kts | 218° |
| 2026-04-28 19:42 | 43.62812 | -79.40333 | 250 ft | 0 kts | 182° |
| 2026-04-28 19:43 | 43.62809 | -79.40333 | 250 ft | 4 kts | 176° |
| 2026-04-28 19:44 | 43.62761 | -79.40275 | 252 ft | 9 kts | 89° |
| 2026-04-28 19:44 | 43.62765 | -79.40247 | 252 ft | 0 kts | 74° |
| 2026-04-28 19:44 | 43.62765 | -79.40246 | 252 ft | 1 kts | 76° |
| 2026-04-28 19:45 | 43.62814 | -79.40049 | 252 ft | 47 kts | 70° |
| 2026-04-28 19:45 | 43.62960 | -79.39454 | 295 ft | 77 kts | 72° |
| 2026-04-28 19:45 | 43.63263 | -79.38752 | 457 ft | 81 kts | 69° |
| 2026-04-28 19:45 | 43.63605 | -79.37979 | 510 ft | 101 kts | 71° |
| 2026-04-28 19:46 | 43.63761 | -79.37098 | 711 ft | 93 kts | 90° |
| 2026-04-28 19:46 | 43.63835 | -79.36216 | 964 ft | 90 kts | 88° |
| 2026-04-28 19:46 | 43.63830 | -79.35382 | 1151 ft | 84 kts | 129° |
| 2026-04-28 19:46 | 43.63353 | -79.35052 | 1389 ft | 79 kts | 167° |
| 2026-04-28 19:47 | 43.62901 | -79.34420 | 1435 ft | 104 kts | 139° |
| 2026-04-28 19:47 | 43.62349 | -79.33763 | 1440 ft | 105 kts | 173° |
| 2026-04-28 19:47 | 43.61702 | -79.34109 | 1441 ft | 108 kts | 228° |
| 2026-04-28 19:47 | 43.61387 | -79.35086 | 1432 ft | 112 kts | 244° |
| 2026-04-28 19:48 | 43.61101 | -79.36083 | 1431 ft | 113 kts | 243° |
| 2026-04-28 19:48 | 43.60803 | -79.37071 | 1439 ft | 112 kts | 242° |
| 2026-04-28 19:48 | 43.60506 | -79.38062 | 1430 ft | 111 kts | 242° |
| 2026-04-28 19:48 | 43.60217 | -79.39043 | 1432 ft | 111 kts | 243° |
| 2026-04-28 19:49 | 43.59946 | -79.40020 | 1416 ft | 111 kts | 247° |
| 2026-04-28 19:49 | 43.59904 | -79.41184 | 1200 ft | 126 kts | 274° |
| 2026-04-28 19:49 | 43.60379 | -79.42217 | 981 ft | 130 kts | 322° |
| 2026-04-28 19:49 | 43.61168 | -79.42570 | 749 ft | 116 kts | 7° |
| 2026-04-28 19:50 | 43.62390 | -79.41833 | 541 ft | 77 kts | 66° |
| 2026-04-28 19:50 | 43.62570 | -79.41123 | 474 ft | 83 kts | 76° |
| 2026-04-28 19:50 | 43.62750 | -79.40368 | 298 ft | 85 kts | 79° |
| 2026-04-28 19:51 | 43.62919 | -79.39659 | 257 ft | 73 kts | 82° |
| 2026-04-28 19:51 | 43.63075 | -79.38924 | 324 ft | 82 kts | 96° |
| 2026-04-28 19:51 | 43.63366 | -79.38182 | 392 ft | 103 kts | 59° |
| 2026-04-28 19:51 | 43.63805 | -79.37364 | 502 ft | 104 kts | 62° |
| 2026-04-28 19:52 | 43.64086 | -79.36501 | 699 ft | 94 kts | 91° |
| 2026-04-28 19:52 | 43.63891 | -79.35644 | 754 ft | 101 kts | 128° |
| 2026-04-28 19:52 | 43.63479 | -79.34806 | 798 ft | 111 kts | 128° |
| 2026-04-28 19:52 | 43.62895 | -79.34167 | 852 ft | 103 kts | 162° |
| 2026-04-28 19:53 | 43.62212 | -79.34155 | 957 ft | 98 kts | 208° |
| 2026-04-28 19:53 | 43.61743 | -79.34848 | 975 ft | 105 kts | 229° |
| 2026-04-28 19:53 | 43.61304 | -79.35674 | 989 ft | 110 kts | 238° |
| 2026-04-28 19:53 | 43.61000 | -79.36613 | 1112 ft | 103 kts | 243° |
| 2026-04-28 19:54 | 43.60733 | -79.37479 | 1241 ft | 96 kts | 244° |
| 2026-04-28 19:54 | 43.60533 | -79.38343 | 1364 ft | 92 kts | 246° |
| 2026-04-28 19:54 | 43.60344 | -79.39179 | 1421 ft | 93 kts | 246° |
| 2026-04-28 19:54 | 43.60149 | -79.40050 | 1428 ft | 97 kts | 246° |
| 2026-04-28 19:55 | 43.59944 | -79.40970 | 1299 ft | 102 kts | 250° |
| 2026-04-28 19:55 | 43.60161 | -79.41900 | 1167 ft | 115 kts | 314° |
| 2026-04-28 19:55 | 43.60790 | -79.42568 | 1123 ft | 109 kts | 316° |
| 2026-04-28 19:55 | 43.61485 | -79.42798 | 1054 ft | 111 kts | 28° |
| 2026-04-28 19:56 | 43.62049 | -79.42272 | 927 ft | 92 kts | 38° |
| 2026-04-28 19:56 | 43.62453 | -79.41625 | 687 ft | 87 kts | 71° |
| 2026-04-28 19:56 | 43.62618 | -79.40869 | 482 ft | 81 kts | 83° |
| 2026-04-28 19:56 | 43.62803 | -79.40144 | 276 ft | 78 kts | 89° |
| 2026-04-28 19:57 | 43.62940 | -79.39533 | 260 ft | 49 kts | 69° |
| 2026-04-28 19:57 | 43.63017 | -79.39254 | 260 ft | 17 kts | 64° |
| 2026-04-28 19:57 | 43.63051 | -79.39237 | 260 ft | 0 kts | 332° |
| 2026-04-28 19:58 | 43.63068 | -79.39251 | 260 ft | 10 kts | 328° |
| 2026-04-28 19:58 | 43.63133 | -79.39273 | 255 ft | 9 kts | 39° |
| 2026-04-28 19:58 | 43.63142 | -79.39294 | 255 ft | 1 kts | 167° |